sensor_id;sensor_type;location;lat;lon;timestamp;P1;durP1;ratioP1;P2;durP2;ratioP2
76606;SDS011;65498;50.916;4.698;2023-04-06T00:01:08;7.78;;;3.77;;
76606;SDS011;65498;50.916;4.698;2023-04-06T00:03:35;8.53;;;3.77;;
76606;SDS011;65498;50.916;4.698;2023-04-06T00:06:03;10.08;;;3.80;;
76606;SDS011;65498;50.916;4.698;2023-04-06T00:08:31;15.25;;;3.80;;
76606;SDS011;65498;50.916;4.698;2023-04-06T00:10:59;21.12;;;4.80;;
76606;SDS011;65498;50.916;4.698;2023-04-06T00:13:26;10.30;;;3.72;;
76606;SDS011;65498;50.916;4.698;2023-04-06T00:15:54;16.20;;;3.90;;
76606;SDS011;65498;50.916;4.698;2023-04-06T00:18:22;10.13;;;3.90;;
76606;SDS011;65498;50.916;4.698;2023-04-06T00:20:50;12.78;;;4.60;;
76606;SDS011;65498;50.916;4.698;2023-04-06T00:23:17;11.63;;;4.10;;
76606;SDS011;65498;50.916;4.698;2023-04-06T00:25:45;10.15;;;4.78;;
76606;SDS011;65498;50.916;4.698;2023-04-06T00:28:12;10.90;;;3.67;;
76606;SDS011;65498;50.916;4.698;2023-04-06T00:30:40;10.93;;;4.22;;
76606;SDS011;65498;50.916;4.698;2023-04-06T00:33:08;13.40;;;4.40;;
76606;SDS011;65498;50.916;4.698;2023-04-06T00:35:36;11.05;;;4.65;;
76606;SDS011;65498;50.916;4.698;2023-04-06T00:38:04;10.10;;;4.12;;
76606;SDS011;65498;50.916;4.698;2023-04-06T00:40:32;12.43;;;4.05;;
76606;SDS011;65498;50.916;4.698;2023-04-06T00:43:00;8.63;;;4.17;;
76606;SDS011;65498;50.916;4.698;2023-04-06T00:45:28;11.60;;;4.37;;
76606;SDS011;65498;50.916;4.698;2023-04-06T00:47:55;8.95;;;4.35;;
76606;SDS011;65498;50.916;4.698;2023-04-06T00:50:23;9.40;;;4.03;;
76606;SDS011;65498;50.916;4.698;2023-04-06T00:52:51;11.12;;;4.30;;
76606;SDS011;65498;50.916;4.698;2023-04-06T00:55:19;8.88;;;4.15;;
76606;SDS011;65498;50.916;4.698;2023-04-06T00:57:47;8.70;;;3.98;;
76606;SDS011;65498;50.916;4.698;2023-04-06T01:00:16;9.10;;;4.25;;
76606;SDS011;65498;50.916;4.698;2023-04-06T01:02:44;8.93;;;4.37;;
76606;SDS011;65498;50.916;4.698;2023-04-06T01:05:12;10.08;;;4.03;;
76606;SDS011;65498;50.916;4.698;2023-04-06T01:07:39;10.10;;;4.60;;
76606;SDS011;65498;50.916;4.698;2023-04-06T01:10:07;10.25;;;4.20;;
76606;SDS011;65498;50.916;4.698;2023-04-06T01:12:36;8.00;;;4.05;;
76606;SDS011;65498;50.916;4.698;2023-04-06T01:15:04;9.33;;;4.10;;
76606;SDS011;65498;50.916;4.698;2023-04-06T01:17:33;10.15;;;4.70;;
76606;SDS011;65498;50.916;4.698;2023-04-06T01:20:01;12.50;;;4.10;;
76606;SDS011;65498;50.916;4.698;2023-04-06T01:22:28;8.20;;;3.80;;
76606;SDS011;65498;50.916;4.698;2023-04-06T01:24:56;7.03;;;3.50;;
76606;SDS011;65498;50.916;4.698;2023-04-06T01:27:23;10.48;;;4.00;;
76606;SDS011;65498;50.916;4.698;2023-04-06T01:29:52;8.60;;;4.12;;
76606;SDS011;65498;50.916;4.698;2023-04-06T01:32:19;8.75;;;4.08;;
76606;SDS011;65498;50.916;4.698;2023-04-06T01:34:47;11.70;;;5.03;;
76606;SDS011;65498;50.916;4.698;2023-04-06T01:37:14;10.60;;;5.08;;
76606;SDS011;65498;50.916;4.698;2023-04-06T01:39:42;9.33;;;4.05;;
76606;SDS011;65498;50.916;4.698;2023-04-06T01:42:10;7.65;;;4.12;;
76606;SDS011;65498;50.916;4.698;2023-04-06T01:44:38;10.43;;;4.03;;
76606;SDS011;65498;50.916;4.698;2023-04-06T01:47:05;8.05;;;3.50;;
76606;SDS011;65498;50.916;4.698;2023-04-06T01:49:33;8.00;;;3.67;;
76606;SDS011;65498;50.916;4.698;2023-04-06T01:52:00;8.00;;;3.98;;
76606;SDS011;65498;50.916;4.698;2023-04-06T01:54:28;8.83;;;3.62;;
76606;SDS011;65498;50.916;4.698;2023-04-06T01:56:55;10.45;;;5.80;;
76606;SDS011;65498;50.916;4.698;2023-04-06T01:59:23;9.80;;;3.60;;
76606;SDS011;65498;50.916;4.698;2023-04-06T02:01:50;8.40;;;3.80;;
76606;SDS011;65498;50.916;4.698;2023-04-06T02:04:18;7.65;;;3.60;;
76606;SDS011;65498;50.916;4.698;2023-04-06T02:06:45;7.75;;;3.52;;
76606;SDS011;65498;50.916;4.698;2023-04-06T02:09:13;8.10;;;3.65;;
76606;SDS011;65498;50.916;4.698;2023-04-06T02:11:41;8.63;;;3.98;;
76606;SDS011;65498;50.916;4.698;2023-04-06T02:14:09;7.12;;;3.40;;
76606;SDS011;65498;50.916;4.698;2023-04-06T02:16:36;8.35;;;4.10;;
76606;SDS011;65498;50.916;4.698;2023-04-06T02:19:04;7.62;;;3.62;;
76606;SDS011;65498;50.916;4.698;2023-04-06T02:21:31;7.50;;;3.92;;
76606;SDS011;65498;50.916;4.698;2023-04-06T02:23:59;8.03;;;3.67;;
76606;SDS011;65498;50.916;4.698;2023-04-06T02:26:26;8.80;;;4.03;;
76606;SDS011;65498;50.916;4.698;2023-04-06T02:28:54;8.53;;;3.37;;
76606;SDS011;65498;50.916;4.698;2023-04-06T02:31:21;8.10;;;3.67;;
76606;SDS011;65498;50.916;4.698;2023-04-06T02:33:49;9.73;;;4.20;;
76606;SDS011;65498;50.916;4.698;2023-04-06T02:36:16;8.15;;;3.77;;
76606;SDS011;65498;50.916;4.698;2023-04-06T02:38:44;7.65;;;4.10;;
76606;SDS011;65498;50.916;4.698;2023-04-06T02:41:11;7.75;;;3.30;;
76606;SDS011;65498;50.916;4.698;2023-04-06T02:43:39;8.13;;;3.27;;
76606;SDS011;65498;50.916;4.698;2023-04-06T02:46:06;7.78;;;3.90;;
76606;SDS011;65498;50.916;4.698;2023-04-06T02:48:34;7.65;;;3.67;;
76606;SDS011;65498;50.916;4.698;2023-04-06T02:51:02;6.95;;;3.30;;
76606;SDS011;65498;50.916;4.698;2023-04-06T02:53:30;8.95;;;3.98;;
76606;SDS011;65498;50.916;4.698;2023-04-06T02:55:58;9.73;;;4.58;;
76606;SDS011;65498;50.916;4.698;2023-04-06T02:58:26;8.33;;;3.75;;
76606;SDS011;65498;50.916;4.698;2023-04-06T03:00:53;8.30;;;3.90;;
76606;SDS011;65498;50.916;4.698;2023-04-06T03:03:21;22.75;;;5.28;;
76606;SDS011;65498;50.916;4.698;2023-04-06T03:05:48;7.42;;;3.67;;
76606;SDS011;65498;50.916;4.698;2023-04-06T03:08:16;8.53;;;3.98;;
76606;SDS011;65498;50.916;4.698;2023-04-06T03:10:43;7.78;;;3.62;;
76606;SDS011;65498;50.916;4.698;2023-04-06T03:13:11;7.78;;;3.80;;
76606;SDS011;65498;50.916;4.698;2023-04-06T03:15:38;9.25;;;3.60;;
76606;SDS011;65498;50.916;4.698;2023-04-06T03:18:06;7.80;;;4.30;;
76606;SDS011;65498;50.916;4.698;2023-04-06T03:20:33;7.42;;;3.50;;
76606;SDS011;65498;50.916;4.698;2023-04-06T03:23:01;8.15;;;4.00;;
76606;SDS011;65498;50.916;4.698;2023-04-06T03:25:28;8.88;;;3.58;;
76606;SDS011;65498;50.916;4.698;2023-04-06T03:27:56;7.78;;;3.92;;
76606;SDS011;65498;50.916;4.698;2023-04-06T03:30:24;8.00;;;3.70;;
76606;SDS011;65498;50.916;4.698;2023-04-06T03:32:52;7.42;;;3.50;;
76606;SDS011;65498;50.916;4.698;2023-04-06T03:35:20;7.33;;;3.55;;
76606;SDS011;65498;50.916;4.698;2023-04-06T03:37:47;6.28;;;3.15;;
76606;SDS011;65498;50.916;4.698;2023-04-06T03:40:15;9.10;;;4.10;;
76606;SDS011;65498;50.916;4.698;2023-04-06T03:42:43;7.72;;;3.90;;
76606;SDS011;65498;50.916;4.698;2023-04-06T03:45:10;7.83;;;3.70;;
76606;SDS011;65498;50.916;4.698;2023-04-06T03:47:39;7.75;;;3.40;;
76606;SDS011;65498;50.916;4.698;2023-04-06T03:50:07;7.85;;;3.35;;
76606;SDS011;65498;50.916;4.698;2023-04-06T03:52:35;6.87;;;3.02;;
76606;SDS011;65498;50.916;4.698;2023-04-06T03:55:03;8.88;;;3.90;;
76606;SDS011;65498;50.916;4.698;2023-04-06T03:57:31;6.97;;;2.92;;
76606;SDS011;65498;50.916;4.698;2023-04-06T03:59:58;8.50;;;3.85;;
76606;SDS011;65498;50.916;4.698;2023-04-06T04:02:26;6.95;;;3.30;;
76606;SDS011;65498;50.916;4.698;2023-04-06T04:04:53;6.90;;;3.35;;
76606;SDS011;65498;50.916;4.698;2023-04-06T04:07:21;7.90;;;3.55;;
76606;SDS011;65498;50.916;4.698;2023-04-06T04:09:48;6.97;;;3.10;;
76606;SDS011;65498;50.916;4.698;2023-04-06T04:12:16;6.70;;;3.30;;
76606;SDS011;65498;50.916;4.698;2023-04-06T04:14:44;7.95;;;4.70;;
76606;SDS011;65498;50.916;4.698;2023-04-06T04:17:12;7.80;;;3.90;;
76606;SDS011;65498;50.916;4.698;2023-04-06T04:19:39;7.70;;;3.60;;
76606;SDS011;65498;50.916;4.698;2023-04-06T04:22:07;6.95;;;3.50;;
76606;SDS011;65498;50.916;4.698;2023-04-06T04:24:34;6.92;;;3.35;;
76606;SDS011;65498;50.916;4.698;2023-04-06T04:27:02;7.60;;;3.25;;
76606;SDS011;65498;50.916;4.698;2023-04-06T04:29:30;7.17;;;3.65;;
76606;SDS011;65498;50.916;4.698;2023-04-06T04:31:58;8.23;;;3.55;;
76606;SDS011;65498;50.916;4.698;2023-04-06T04:34:25;8.23;;;3.75;;
76606;SDS011;65498;50.916;4.698;2023-04-06T04:36:53;8.95;;;3.40;;
76606;SDS011;65498;50.916;4.698;2023-04-06T04:39:21;7.75;;;3.42;;
76606;SDS011;65498;50.916;4.698;2023-04-06T04:41:49;7.72;;;3.22;;
76606;SDS011;65498;50.916;4.698;2023-04-06T04:44:16;7.75;;;3.17;;
76606;SDS011;65498;50.916;4.698;2023-04-06T04:46:44;8.20;;;3.70;;
76606;SDS011;65498;50.916;4.698;2023-04-06T04:49:11;7.85;;;3.75;;
76606;SDS011;65498;50.916;4.698;2023-04-06T04:51:38;7.25;;;3.60;;
76606;SDS011;65498;50.916;4.698;2023-04-06T04:54:06;7.85;;;3.55;;
76606;SDS011;65498;50.916;4.698;2023-04-06T04:56:33;7.03;;;3.20;;
76606;SDS011;65498;50.916;4.698;2023-04-06T04:59:01;6.62;;;3.33;;
76606;SDS011;65498;50.916;4.698;2023-04-06T05:01:28;7.47;;;3.47;;
76606;SDS011;65498;50.916;4.698;2023-04-06T05:03:56;7.17;;;3.50;;
76606;SDS011;65498;50.916;4.698;2023-04-06T05:06:23;6.20;;;3.00;;
76606;SDS011;65498;50.916;4.698;2023-04-06T05:08:51;8.45;;;3.42;;
76606;SDS011;65498;50.916;4.698;2023-04-06T05:11:18;7.85;;;3.65;;
76606;SDS011;65498;50.916;4.698;2023-04-06T05:13:47;7.40;;;3.65;;
76606;SDS011;65498;50.916;4.698;2023-04-06T05:16:14;8.55;;;3.60;;
76606;SDS011;65498;50.916;4.698;2023-04-06T05:18:42;6.85;;;3.35;;
76606;SDS011;65498;50.916;4.698;2023-04-06T05:21:10;7.12;;;3.52;;
76606;SDS011;65498;50.916;4.698;2023-04-06T05:23:38;7.78;;;3.98;;
76606;SDS011;65498;50.916;4.698;2023-04-06T05:26:06;8.08;;;3.27;;
76606;SDS011;65498;50.916;4.698;2023-04-06T05:28:34;6.95;;;3.55;;
76606;SDS011;65498;50.916;4.698;2023-04-06T05:31:02;8.45;;;3.67;;
76606;SDS011;65498;50.916;4.698;2023-04-06T05:33:29;7.53;;;3.92;;
76606;SDS011;65498;50.916;4.698;2023-04-06T05:35:57;8.83;;;3.30;;
76606;SDS011;65498;50.916;4.698;2023-04-06T05:38:26;7.87;;;3.20;;
76606;SDS011;65498;50.916;4.698;2023-04-06T05:40:54;8.88;;;3.12;;
76606;SDS011;65498;50.916;4.698;2023-04-06T05:43:21;7.75;;;3.50;;
76606;SDS011;65498;50.916;4.698;2023-04-06T05:45:49;16.57;;;3.60;;
76606;SDS011;65498;50.916;4.698;2023-04-06T05:48:16;7.80;;;3.83;;
76606;SDS011;65498;50.916;4.698;2023-04-06T05:50:47;9.63;;;3.67;;
76606;SDS011;65498;50.916;4.698;2023-04-06T05:53:16;10.93;;;4.12;;
76606;SDS011;65498;50.916;4.698;2023-04-06T05:55:44;8.60;;;4.53;;
76606;SDS011;65498;50.916;4.698;2023-04-06T05:58:11;8.68;;;4.70;;
76606;SDS011;65498;50.916;4.698;2023-04-06T06:00:39;8.40;;;4.35;;
76606;SDS011;65498;50.916;4.698;2023-04-06T06:03:08;10.78;;;4.12;;
76606;SDS011;65498;50.916;4.698;2023-04-06T06:05:36;11.48;;;4.80;;
76606;SDS011;65498;50.916;4.698;2023-04-06T06:08:03;9.28;;;4.30;;
76606;SDS011;65498;50.916;4.698;2023-04-06T06:10:31;8.15;;;4.20;;
76606;SDS011;65498;50.916;4.698;2023-04-06T06:12:58;9.98;;;4.62;;
76606;SDS011;65498;50.916;4.698;2023-04-06T06:15:26;7.95;;;4.20;;
76606;SDS011;65498;50.916;4.698;2023-04-06T06:17:53;8.68;;;4.50;;
76606;SDS011;65498;50.916;4.698;2023-04-06T06:20:21;9.18;;;4.00;;
76606;SDS011;65498;50.916;4.698;2023-04-06T06:22:48;10.88;;;4.25;;
76606;SDS011;65498;50.916;4.698;2023-04-06T06:25:16;10.03;;;4.75;;
76606;SDS011;65498;50.916;4.698;2023-04-06T06:27:44;7.90;;;4.05;;
76606;SDS011;65498;50.916;4.698;2023-04-06T06:30:11;8.75;;;3.80;;
76606;SDS011;65498;50.916;4.698;2023-04-06T06:32:39;8.95;;;4.47;;
76606;SDS011;65498;50.916;4.698;2023-04-06T06:35:07;8.25;;;4.28;;
76606;SDS011;65498;50.916;4.698;2023-04-06T06:37:35;17.87;;;9.50;;
76606;SDS011;65498;50.916;4.698;2023-04-06T06:40:03;18.62;;;11.00;;
76606;SDS011;65498;50.916;4.698;2023-04-06T06:42:31;18.65;;;10.58;;
76606;SDS011;65498;50.916;4.698;2023-04-06T06:44:58;17.40;;;9.88;;
76606;SDS011;65498;50.916;4.698;2023-04-06T06:47:26;17.70;;;9.40;;
76606;SDS011;65498;50.916;4.698;2023-04-06T06:49:53;17.32;;;8.48;;
76606;SDS011;65498;50.916;4.698;2023-04-06T06:52:21;15.58;;;9.40;;
76606;SDS011;65498;50.916;4.698;2023-04-06T06:54:49;18.42;;;8.95;;
76606;SDS011;65498;50.916;4.698;2023-04-06T06:57:17;17.65;;;9.15;;
76606;SDS011;65498;50.916;4.698;2023-04-06T06:59:44;16.65;;;9.93;;
76606;SDS011;65498;50.916;4.698;2023-04-06T07:02:12;19.85;;;11.33;;
76606;SDS011;65498;50.916;4.698;2023-04-06T07:04:40;21.37;;;10.40;;
76606;SDS011;65498;50.916;4.698;2023-04-06T07:07:07;20.95;;;10.28;;
76606;SDS011;65498;50.916;4.698;2023-04-06T07:09:35;18.05;;;10.32;;
76606;SDS011;65498;50.916;4.698;2023-04-06T07:12:02;22.15;;;11.15;;
76606;SDS011;65498;50.916;4.698;2023-04-06T07:14:30;18.55;;;10.13;;
76606;SDS011;65498;50.916;4.698;2023-04-06T07:16:58;20.97;;;9.90;;
76606;SDS011;65498;50.916;4.698;2023-04-06T07:19:25;18.87;;;9.45;;
76606;SDS011;65498;50.916;4.698;2023-04-06T07:21:53;24.98;;;12.53;;
76606;SDS011;65498;50.916;4.698;2023-04-06T07:24:20;29.98;;;16.57;;
76606;SDS011;65498;50.916;4.698;2023-04-06T07:26:47;32.35;;;17.80;;
76606;SDS011;65498;50.916;4.698;2023-04-06T07:29:15;30.75;;;17.00;;
76606;SDS011;65498;50.916;4.698;2023-04-06T07:31:43;32.60;;;17.10;;
76606;SDS011;65498;50.916;4.698;2023-04-06T07:34:11;31.10;;;16.40;;
76606;SDS011;65498;50.916;4.698;2023-04-06T07:36:39;32.50;;;16.50;;
76606;SDS011;65498;50.916;4.698;2023-04-06T07:39:06;27.05;;;15.40;;
76606;SDS011;65498;50.916;4.698;2023-04-06T07:41:35;29.20;;;15.43;;
76606;SDS011;65498;50.916;4.698;2023-04-06T07:44:03;31.02;;;17.77;;
76606;SDS011;65498;50.916;4.698;2023-04-06T07:46:31;29.52;;;16.67;;
76606;SDS011;65498;50.916;4.698;2023-04-06T07:48:59;31.60;;;18.05;;
76606;SDS011;65498;50.916;4.698;2023-04-06T07:51:27;33.27;;;18.43;;
76606;SDS011;65498;50.916;4.698;2023-04-06T07:53:55;34.73;;;19.20;;
76606;SDS011;65498;50.916;4.698;2023-04-06T07:56:23;29.63;;;17.20;;
76606;SDS011;65498;50.916;4.698;2023-04-06T07:58:50;30.55;;;17.32;;
76606;SDS011;65498;50.916;4.698;2023-04-06T08:01:20;35.43;;;16.55;;
76606;SDS011;65498;50.916;4.698;2023-04-06T08:03:47;25.57;;;13.45;;
76606;SDS011;65498;50.916;4.698;2023-04-06T08:06:16;26.42;;;15.05;;
76606;SDS011;65498;50.916;4.698;2023-04-06T08:08:44;40.58;;;25.02;;
76606;SDS011;65498;50.916;4.698;2023-04-06T08:11:11;53.13;;;32.53;;
76606;SDS011;65498;50.916;4.698;2023-04-06T08:13:39;33.83;;;18.77;;
76606;SDS011;65498;50.916;4.698;2023-04-06T08:16:07;42.35;;;23.12;;
76606;SDS011;65498;50.916;4.698;2023-04-06T08:18:35;41.73;;;24.87;;
76606;SDS011;65498;50.916;4.698;2023-04-06T08:21:02;42.48;;;24.20;;
76606;SDS011;65498;50.916;4.698;2023-04-06T08:23:30;38.83;;;22.85;;
76606;SDS011;65498;50.916;4.698;2023-04-06T08:25:57;41.88;;;23.25;;
76606;SDS011;65498;50.916;4.698;2023-04-06T08:28:25;36.83;;;21.90;;
76606;SDS011;65498;50.916;4.698;2023-04-06T08:30:52;35.28;;;20.35;;
76606;SDS011;65498;50.916;4.698;2023-04-06T08:33:20;37.05;;;19.80;;
76606;SDS011;65498;50.916;4.698;2023-04-06T08:35:47;30.82;;;18.30;;
76606;SDS011;65498;50.916;4.698;2023-04-06T08:38:15;32.03;;;17.17;;
76606;SDS011;65498;50.916;4.698;2023-04-06T08:40:43;29.87;;;16.70;;
76606;SDS011;65498;50.916;4.698;2023-04-06T08:43:13;30.80;;;15.75;;
76606;SDS011;65498;50.916;4.698;2023-04-06T08:45:41;28.35;;;15.58;;
76606;SDS011;65498;50.916;4.698;2023-04-06T08:48:09;29.55;;;16.30;;
76606;SDS011;65498;50.916;4.698;2023-04-06T08:50:38;25.10;;;14.03;;
76606;SDS011;65498;50.916;4.698;2023-04-06T08:53:06;28.35;;;15.80;;
76606;SDS011;65498;50.916;4.698;2023-04-06T08:55:34;29.32;;;15.78;;
76606;SDS011;65498;50.916;4.698;2023-04-06T08:58:02;25.00;;;13.93;;
76606;SDS011;65498;50.916;4.698;2023-04-06T09:02:59;26.17;;;14.47;;
76606;SDS011;65498;50.916;4.698;2023-04-06T09:05:27;26.17;;;14.60;;
76606;SDS011;65498;50.916;4.698;2023-04-06T09:07:55;26.05;;;13.20;;
76606;SDS011;65498;50.916;4.698;2023-04-06T09:10:22;23.38;;;13.08;;
76606;SDS011;65498;50.916;4.698;2023-04-06T09:12:51;23.37;;;12.93;;
76606;SDS011;65498;50.916;4.698;2023-04-06T09:15:22;19.42;;;11.48;;
76606;SDS011;65498;50.916;4.698;2023-04-06T09:17:49;20.88;;;12.58;;
76606;SDS011;65498;50.916;4.698;2023-04-06T09:20:22;22.77;;;11.83;;
76606;SDS011;65498;50.916;4.698;2023-04-06T09:22:52;21.05;;;12.43;;
76606;SDS011;65498;50.916;4.698;2023-04-06T09:25:23;20.52;;;11.55;;
76606;SDS011;65498;50.916;4.698;2023-04-06T09:28:00;17.45;;;10.18;;
76606;SDS011;65498;50.916;4.698;2023-04-06T09:30:29;21.87;;;11.68;;
76606;SDS011;65498;50.916;4.698;2023-04-06T09:32:57;18.65;;;10.08;;
76606;SDS011;65498;50.916;4.698;2023-04-06T09:35:25;19.07;;;10.48;;
76606;SDS011;65498;50.916;4.698;2023-04-06T09:37:53;19.85;;;10.70;;
76606;SDS011;65498;50.916;4.698;2023-04-06T09:40:21;18.48;;;10.32;;
76606;SDS011;65498;50.916;4.698;2023-04-06T09:42:50;17.32;;;9.30;;
76606;SDS011;65498;50.916;4.698;2023-04-06T09:45:19;21.23;;;10.60;;
76606;SDS011;65498;50.916;4.698;2023-04-06T09:47:47;17.15;;;9.43;;
76606;SDS011;65498;50.916;4.698;2023-04-06T09:52:48;17.82;;;9.18;;
76606;SDS011;65498;50.916;4.698;2023-04-06T09:55:30;17.35;;;8.55;;
76606;SDS011;65498;50.916;4.698;2023-04-06T09:58:02;16.90;;;8.03;;
76606;SDS011;65498;50.916;4.698;2023-04-06T10:00:45;20.55;;;8.63;;
76606;SDS011;65498;50.916;4.698;2023-04-06T10:03:11;17.27;;;7.72;;
76606;SDS011;65498;50.916;4.698;2023-04-06T10:05:55;22.60;;;7.65;;
76606;SDS011;65498;50.916;4.698;2023-04-06T10:08:24;16.95;;;7.87;;
76606;SDS011;65498;50.916;4.698;2023-04-06T10:10:54;17.52;;;7.20;;
76606;SDS011;65498;50.916;4.698;2023-04-06T10:13:23;17.05;;;7.30;;
76606;SDS011;65498;50.916;4.698;2023-04-06T10:15:52;18.12;;;7.12;;
76606;SDS011;65498;50.916;4.698;2023-04-06T10:18:20;20.40;;;7.70;;
76606;SDS011;65498;50.916;4.698;2023-04-06T10:20:49;17.50;;;6.95;;
76606;SDS011;65498;50.916;4.698;2023-04-06T10:23:45;16.48;;;7.55;;
76606;SDS011;65498;50.916;4.698;2023-04-06T10:26:19;17.70;;;7.05;;
76606;SDS011;65498;50.916;4.698;2023-04-06T10:28:47;22.95;;;6.95;;
76606;SDS011;65498;50.916;4.698;2023-04-06T10:31:24;15.90;;;6.37;;
76606;SDS011;65498;50.916;4.698;2023-04-06T10:33:58;15.98;;;7.20;;
76606;SDS011;65498;50.916;4.698;2023-04-06T10:36:37;15.38;;;6.15;;
76606;SDS011;65498;50.916;4.698;2023-04-06T10:39:05;14.15;;;6.80;;
76606;SDS011;65498;50.916;4.698;2023-04-06T10:41:34;10.48;;;5.60;;
76606;SDS011;65498;50.916;4.698;2023-04-06T10:44:03;11.63;;;5.40;;
76606;SDS011;65498;50.916;4.698;2023-04-06T10:46:32;16.10;;;5.75;;
76606;SDS011;65498;50.916;4.698;2023-04-06T10:49:10;13.60;;;5.85;;
76606;SDS011;65498;50.916;4.698;2023-04-06T10:51:38;13.53;;;5.50;;
76606;SDS011;65498;50.916;4.698;2023-04-06T10:54:06;12.45;;;5.37;;
76606;SDS011;65498;50.916;4.698;2023-04-06T10:56:36;10.48;;;5.90;;
76606;SDS011;65498;50.916;4.698;2023-04-06T10:59:05;14.28;;;5.03;;
76606;SDS011;65498;50.916;4.698;2023-04-06T11:01:33;10.25;;;5.17;;
76606;SDS011;65498;50.916;4.698;2023-04-06T11:04:01;12.73;;;5.08;;
76606;SDS011;65498;50.916;4.698;2023-04-06T11:06:29;11.43;;;6.03;;
76606;SDS011;65498;50.916;4.698;2023-04-06T11:08:58;12.07;;;5.53;;
76606;SDS011;65498;50.916;4.698;2023-04-06T11:11:26;11.73;;;5.05;;
76606;SDS011;65498;50.916;4.698;2023-04-06T11:13:54;11.80;;;6.20;;
76606;SDS011;65498;50.916;4.698;2023-04-06T11:16:27;12.20;;;5.33;;
76606;SDS011;65498;50.916;4.698;2023-04-06T11:18:59;10.15;;;5.40;;
76606;SDS011;65498;50.916;4.698;2023-04-06T11:21:41;10.43;;;4.55;;
76606;SDS011;65498;50.916;4.698;2023-04-06T11:24:12;10.60;;;4.92;;
76606;SDS011;65498;50.916;4.698;2023-04-06T11:26:52;8.78;;;4.20;;
76606;SDS011;65498;50.916;4.698;2023-04-06T11:29:25;10.50;;;5.10;;
76606;SDS011;65498;50.916;4.698;2023-04-06T11:32:00;11.00;;;5.30;;
76606;SDS011;65498;50.916;4.698;2023-04-06T11:34:30;8.25;;;4.05;;
76606;SDS011;65498;50.916;4.698;2023-04-06T11:37:01;10.15;;;4.42;;
76606;SDS011;65498;50.916;4.698;2023-04-06T11:39:32;10.55;;;4.67;;
76606;SDS011;65498;50.916;4.698;2023-04-06T11:44:44;9.35;;;4.22;;
76606;SDS011;65498;50.916;4.698;2023-04-06T11:47:15;8.90;;;4.25;;
76606;SDS011;65498;50.916;4.698;2023-04-06T11:49:43;10.78;;;4.10;;
76606;SDS011;65498;50.916;4.698;2023-04-06T11:52:14;13.38;;;4.67;;
76606;SDS011;65498;50.916;4.698;2023-04-06T11:54:43;10.32;;;4.17;;
76606;SDS011;65498;50.916;4.698;2023-04-06T11:57:11;8.95;;;4.03;;
76606;SDS011;65498;50.916;4.698;2023-04-06T11:59:39;8.05;;;4.30;;
76606;SDS011;65498;50.916;4.698;2023-04-06T12:02:06;9.75;;;3.83;;
76606;SDS011;65498;50.916;4.698;2023-04-06T12:04:34;9.08;;;3.80;;
76606;SDS011;65498;50.916;4.698;2023-04-06T12:07:02;10.05;;;3.70;;
76606;SDS011;65498;50.916;4.698;2023-04-06T12:09:30;11.38;;;4.17;;
76606;SDS011;65498;50.916;4.698;2023-04-06T12:12:00;8.90;;;3.67;;
76606;SDS011;65498;50.916;4.698;2023-04-06T12:14:28;9.75;;;4.08;;
76606;SDS011;65498;50.916;4.698;2023-04-06T12:16:56;12.78;;;4.78;;
76606;SDS011;65498;50.916;4.698;2023-04-06T12:19:24;11.12;;;4.62;;
76606;SDS011;65498;50.916;4.698;2023-04-06T12:21:52;11.12;;;5.65;;
76606;SDS011;65498;50.916;4.698;2023-04-06T12:24:20;11.53;;;4.80;;
76606;SDS011;65498;50.916;4.698;2023-04-06T12:26:48;11.33;;;4.67;;
76606;SDS011;65498;50.916;4.698;2023-04-06T12:29:16;9.75;;;4.37;;
76606;SDS011;65498;50.916;4.698;2023-04-06T12:31:43;11.78;;;4.65;;
76606;SDS011;65498;50.916;4.698;2023-04-06T12:34:11;11.65;;;5.17;;
76606;SDS011;65498;50.916;4.698;2023-04-06T12:36:39;12.35;;;4.83;;
76606;SDS011;65498;50.916;4.698;2023-04-06T12:39:06;11.25;;;4.53;;
76606;SDS011;65498;50.916;4.698;2023-04-06T12:41:34;9.40;;;4.08;;
76606;SDS011;65498;50.916;4.698;2023-04-06T12:44:02;10.90;;;4.72;;
76606;SDS011;65498;50.916;4.698;2023-04-06T12:46:29;11.65;;;3.95;;
76606;SDS011;65498;50.916;4.698;2023-04-06T12:48:57;9.85;;;3.70;;
76606;SDS011;65498;50.916;4.698;2023-04-06T12:51:27;12.55;;;4.20;;
76606;SDS011;65498;50.916;4.698;2023-04-06T12:53:54;8.63;;;3.35;;
76606;SDS011;65498;50.916;4.698;2023-04-06T12:56:21;12.88;;;4.17;;
76606;SDS011;65498;50.916;4.698;2023-04-06T12:58:52;10.10;;;4.30;;
76606;SDS011;65498;50.916;4.698;2023-04-06T13:01:20;11.18;;;4.08;;
76606;SDS011;65498;50.916;4.698;2023-04-06T13:03:48;9.80;;;4.10;;
76606;SDS011;65498;50.916;4.698;2023-04-06T13:06:16;10.45;;;5.08;;
76606;SDS011;65498;50.916;4.698;2023-04-06T13:08:43;9.13;;;4.50;;
76606;SDS011;65498;50.916;4.698;2023-04-06T13:11:12;11.40;;;4.62;;
76606;SDS011;65498;50.916;4.698;2023-04-06T13:13:40;13.28;;;5.15;;
76606;SDS011;65498;50.916;4.698;2023-04-06T13:16:07;10.93;;;4.97;;
76606;SDS011;65498;50.916;4.698;2023-04-06T13:18:35;10.53;;;5.28;;
76606;SDS011;65498;50.916;4.698;2023-04-06T13:21:04;11.22;;;5.33;;
76606;SDS011;65498;50.916;4.698;2023-04-06T13:23:32;9.25;;;4.87;;
76606;SDS011;65498;50.916;4.698;2023-04-06T13:26:01;14.05;;;4.90;;
76606;SDS011;65498;50.916;4.698;2023-04-06T13:30:58;11.10;;;5.17;;
76606;SDS011;65498;50.916;4.698;2023-04-06T13:33:28;10.00;;;4.70;;
76606;SDS011;65498;50.916;4.698;2023-04-06T13:35:56;11.03;;;4.85;;
76606;SDS011;65498;50.916;4.698;2023-04-06T13:38:25;11.00;;;4.80;;
76606;SDS011;65498;50.916;4.698;2023-04-06T13:40:53;13.13;;;6.40;;
76606;SDS011;65498;50.916;4.698;2023-04-06T13:43:20;13.40;;;5.45;;
76606;SDS011;65498;50.916;4.698;2023-04-06T13:45:53;13.53;;;5.40;;
76606;SDS011;65498;50.916;4.698;2023-04-06T13:48:19;10.95;;;4.87;;
76606;SDS011;65498;50.916;4.698;2023-04-06T13:50:47;9.95;;;5.00;;
76606;SDS011;65498;50.916;4.698;2023-04-06T13:53:14;14.87;;;5.87;;
76606;SDS011;65498;50.916;4.698;2023-04-06T13:55:42;12.30;;;5.33;;
76606;SDS011;65498;50.916;4.698;2023-04-06T13:58:10;10.70;;;5.60;;
76606;SDS011;65498;50.916;4.698;2023-04-06T14:00:38;12.28;;;5.85;;
76606;SDS011;65498;50.916;4.698;2023-04-06T14:03:06;11.03;;;6.15;;
76606;SDS011;65498;50.916;4.698;2023-04-06T14:05:34;10.40;;;4.78;;
76606;SDS011;65498;50.916;4.698;2023-04-06T14:08:01;12.53;;;5.67;;
76606;SDS011;65498;50.916;4.698;2023-04-06T14:10:29;9.63;;;5.08;;
76606;SDS011;65498;50.916;4.698;2023-04-06T14:12:56;13.75;;;5.85;;
76606;SDS011;65498;50.916;4.698;2023-04-06T14:15:24;11.63;;;5.62;;
76606;SDS011;65498;50.916;4.698;2023-04-06T14:17:53;11.10;;;5.92;;
76606;SDS011;65498;50.916;4.698;2023-04-06T14:20:21;9.45;;;5.30;;
76606;SDS011;65498;50.916;4.698;2023-04-06T14:22:48;10.65;;;5.30;;
76606;SDS011;65498;50.916;4.698;2023-04-06T14:25:18;10.58;;;5.12;;
76606;SDS011;65498;50.916;4.698;2023-04-06T14:27:45;11.83;;;5.47;;
76606;SDS011;65498;50.916;4.698;2023-04-06T14:30:13;10.98;;;5.42;;
76606;SDS011;65498;50.916;4.698;2023-04-06T14:32:41;10.65;;;5.22;;
76606;SDS011;65498;50.916;4.698;2023-04-06T14:35:09;9.40;;;5.42;;
76606;SDS011;65498;50.916;4.698;2023-04-06T14:37:37;12.03;;;5.58;;
76606;SDS011;65498;50.916;4.698;2023-04-06T14:40:05;11.08;;;5.75;;
76606;SDS011;65498;50.916;4.698;2023-04-06T14:42:33;9.65;;;5.15;;
76606;SDS011;65498;50.916;4.698;2023-04-06T14:45:02;9.70;;;5.17;;
76606;SDS011;65498;50.916;4.698;2023-04-06T14:47:31;11.30;;;5.97;;
76606;SDS011;65498;50.916;4.698;2023-04-06T14:49:59;9.65;;;5.17;;
76606;SDS011;65498;50.916;4.698;2023-04-06T14:52:26;10.05;;;5.42;;
76606;SDS011;65498;50.916;4.698;2023-04-06T14:54:54;12.05;;;5.72;;